CheckWX is a tool to help pilots better visualize weather data.  It is not intended as a substitute for an official pre-flight weather briefing.

10:09:28 UTC

LICT METAR
Vincenzo Florio Trapani-Birgi Airport
Trapani, Italy
Current

1 hour ago

LICT 220855Z 14024KT 9999 FEW028 27/23 Q1017 RMK BKN BKN090 BKN200 VIS MIN 9999 WIND THR13 12020KT BLU
Observed
Sep-22 @ 08:55 UTC
Wind
  • 140° at 24 KTS
Visibility
10,000+ meters
Flight Rules
VFR
Cloud Levels
  • Few at 2,800' AGL
Temperature
27°C / 81°F
Dewpoint
23°C / 73°F
Heat Index
30°C / 86°F
Humidity
79%
Altimeter
30.03" Hg
Pressure
1016.92 hPa
Previous

2 hours ago

LICT 220755Z 14020KT 9999 FEW028 26/23 Q1018 RMK BKN BKN090 VIS MIN 9999 WIND THR13 13018KT BLU
Observed
Sep-22 @ 07:55 UTC
Wind
  • 140° at 20 KTS
Visibility
10,000+ meters
Flight Rules
VFR
Cloud Levels
  • Few at 2,800' AGL
Temperature
26°C / 79°F
Dewpoint
23°C / 73°F
Humidity
84%
Altimeter
30.06" Hg
Pressure
1017.92 hPa
Previous

3 hours ago

LICT 220655Z 14021G32KT 9999 SCT030 24/22 Q1018 RMK BKN BKN090 VIS MIN 9999 WIND THR13 12018G29KT BLU
Observed
Sep-22 @ 06:55 UTC
Wind
  • 140° at 21 KTS
  • Gusting to 32 KTS
Visibility
10,000+ meters
Flight Rules
VFR
Cloud Levels
  • Scattered at 3,000' AGL
Temperature
24°C / 75°F
Dewpoint
22°C / 72°F
Humidity
89%
Altimeter
30.06" Hg
Pressure
1017.92 hPa